ENSB/LYR METAR and TAF weather

Enter ICAO airport designator
Station Type Date Time Source
ENSB METAR 2020/01/18 21:50 UTC NOAA

ENSB 182150Z 22014KT 9999 -SN BKN026 M03/M07 Q1006 RMK WIND 1400FT 23015KT


Station Type Date Time Source
ENSB Decoded METAR 2020/01/18 21:50 UTC NOAA

Svalbard Lufthavn, Norway (ENSB) 78-15N 015-28E 29M
Jan 18, 2020 - 04:50 PM EST / 2020.01.18 2150 UTC
Wind: from the SW (220 degrees) at 16 MPH (14 KT):0
Visibility: greater than 7 mile(s):0
Sky conditions: mostly cloudy
Weather: light snow
Temperature: 26 F (-3 C)
Windchill: 14 F (-10 C):1
Dew Point: 19 F (-7 C)
Relative Humidity: 73%
Pressure (altimeter): 29.71 in. Hg (1006 hPa)
ob: ENSB 182150Z 22014KT 9999 -SN BKN026 M03/M07 Q1006 RMK WIND 1400FT 23015KT
cycle: 22

Station Type Date Time Source
ENSB TAF 2020/01/18 18:57 UTC NOAA

TAF ENSB 181700Z 1818/1918 22017KT 9999 -SN FEW010 BKN020
BECMG 1904/1907 14015KT
TEMPO 1911/1918 2000 SN VV009
BECMG 1913/1915 24018KT

Example: see airport list